createdAt,value
2016-10-31T08:28:30.213Z,27.69
2016-10-31T08:29:10.912Z,27.66
2016-10-31T08:29:51.616Z,27.69
2016-10-31T08:30:32.322Z,27.67
2016-10-31T08:31:12.972Z,27.63
2016-10-31T08:31:53.692Z,27.65
2016-10-31T08:32:34.424Z,27.6
2016-10-31T08:33:15.109Z,27.72
2016-10-31T08:33:55.804Z,27.7
2016-10-31T08:34:36.512Z,27.69
2016-10-31T08:35:17.230Z,27.72
2016-10-31T08:35:57.914Z,27.77
2016-10-31T08:36:38.605Z,27.77
2016-10-31T08:37:19.304Z,27.74
2016-10-31T08:38:00.023Z,27.77
2016-10-31T08:38:40.663Z,27.77
2016-10-31T08:39:21.382Z,27.67
2016-10-31T08:40:02.090Z,27.67
2016-10-31T08:40:42.745Z,27.69
2016-10-31T08:41:23.441Z,27.75
2016-10-31T08:42:04.187Z,27.69
2016-10-31T08:42:44.871Z,27.75
2016-10-31T08:43:25.576Z,27.78
2016-10-31T08:44:06.271Z,27.78
2016-10-31T08:44:46.974Z,27.77
2016-10-31T08:45:27.639Z,27.7
2016-10-31T08:46:08.363Z,27.75
2016-10-31T08:46:49.045Z,27.72
2016-10-31T08:47:29.702Z,27.7
2016-10-31T08:48:11.372Z,27.78
2016-10-31T08:48:52.031Z,27.72
2016-10-31T08:49:32.778Z,27.77
2016-10-31T08:50:13.468Z,27.79
2016-10-31T08:50:54.176Z,27.77
2016-10-31T08:51:34.857Z,27.84
2016-10-31T08:52:15.518Z,27.78
2016-10-31T08:52:56.181Z,27.82
2016-10-31T08:53:36.849Z,27.82
2016-10-31T08:54:17.553Z,27.87
2016-10-31T08:54:58.271Z,27.87
2016-10-31T08:55:38.958Z,27.87
2016-10-31T08:56:19.628Z,27.79
2016-10-31T08:57:00.317Z,27.9
2016-10-31T08:57:40.993Z,27.85
2016-10-31T08:58:21.695Z,27.77
2016-10-31T08:59:02.450Z,27.66
2016-10-31T08:59:43.126Z,27.66
2016-10-31T09:00:23.772Z,27.84
2016-10-31T09:01:04.520Z,27.96
2016-10-31T09:01:45.209Z,27.99
2016-10-31T09:02:25.855Z,28.06
2016-10-31T09:03:06.571Z,28.04
2016-10-31T09:03:47.280Z,28.11
2016-10-31T09:04:27.975Z,28.07
2016-10-31T09:05:08.692Z,27.94
2016-10-31T09:05:49.404Z,27.94
2016-10-31T09:06:30.115Z,27.79
2016-10-31T09:07:10.823Z,27.69
2016-10-31T09:07:51.517Z,27.77
2016-10-31T09:08:32.252Z,27.75
2016-10-31T09:09:12.925Z,27.77
2016-10-31T09:09:53.620Z,27.7
2016-10-31T09:10:34.318Z,27.65
2016-10-31T09:11:15.031Z,27.79
2016-10-31T09:11:55.725Z,27.75
2016-10-31T09:12:36.439Z,27.79
2016-10-31T09:13:17.134Z,27.81
2016-10-31T09:13:57.844Z,27.81
2016-10-31T09:14:38.571Z,27.92
2016-10-31T09:15:19.289Z,27.96
2016-10-31T09:16:00.044Z,27.93
2016-10-31T09:16:40.752Z,27.97
2016-10-31T09:17:21.436Z,27.85
2016-10-31T09:18:02.105Z,27.9
2016-10-31T09:18:42.815Z,27.93
2016-10-31T09:19:23.486Z,27.99
2016-10-31T09:20:04.190Z,27.97
2016-10-31T09:20:44.888Z,27.93
2016-10-31T09:21:25.620Z,27.93
2016-10-31T09:22:06.355Z,27.96
2016-10-31T09:22:47.024Z,28.11
2016-10-31T09:23:27.748Z,27.99
2016-10-31T09:24:08.444Z,28.02
2016-10-31T09:24:49.108Z,28.02
2016-10-31T09:25:29.839Z,28.02
2016-10-31T09:26:10.542Z,28.04
2016-10-31T09:26:51.286Z,27.97
2016-10-31T09:27:32.003Z,27.93
2016-10-31T09:28:12.736Z,28.06
2016-10-31T09:28:53.468Z,28.03
2016-10-31T09:29:34.161Z,28.19
2016-10-31T09:30:14.848Z,28.17
2016-10-31T09:30:55.598Z,28.12
2016-10-31T09:31:36.279Z,28.17
2016-10-31T09:32:16.954Z,28.15
2016-10-31T09:32:57.673Z,28.14
2016-10-31T09:33:38.380Z,28.17
2016-10-31T09:34:19.066Z,28.14
2016-10-31T09:34:59.768Z,28.17
2016-10-31T09:35:40.481Z,28.19
2016-10-31T09:36:21.149Z,28.18
2016-10-31T09:37:01.838Z,28.22
2016-10-31T09:37:42.500Z,28.36
2016-10-31T09:38:23.230Z,28.27
2016-10-31T09:39:03.957Z,28.29
2016-10-31T09:39:44.658Z,28.31
2016-10-31T09:40:25.332Z,28.31
2016-10-31T09:41:06.054Z,28.34
2016-10-31T09:41:47.276Z,28.25
2016-10-31T09:42:27.477Z,28.29
2016-10-31T09:43:08.788Z,28.29
2016-10-31T09:43:48.884Z,28.18
2016-10-31T09:44:29.514Z,28.14
2016-10-31T09:45:10.225Z,28.18
2016-10-31T09:45:50.904Z,28.15
2016-10-31T09:46:31.591Z,28.15
2016-10-31T09:47:12.258Z,28.17
2016-10-31T09:47:52.962Z,28.22
2016-10-31T09:48:33.712Z,28.15
2016-10-31T09:49:14.366Z,28.12
2016-10-31T09:49:55.073Z,28.12
2016-10-31T09:50:35.761Z,28.09
2016-10-31T09:51:16.473Z,28.07
2016-10-31T09:51:57.155Z,28.02
2016-10-31T09:52:37.848Z,28.03
2016-10-31T09:53:18.522Z,28.06
2016-10-31T09:53:59.257Z,28.02
2016-10-31T09:54:39.946Z,28.02
2016-10-31T09:55:20.654Z,28.12
2016-10-31T09:56:01.355Z,27.96
2016-10-31T09:56:42.029Z,28.03
2016-10-31T09:57:22.749Z,27.92
2016-10-31T09:58:03.439Z,27.92
2016-10-31T09:58:44.184Z,27.75
2016-10-31T09:59:24.880Z,27.77
2016-10-31T10:00:05.615Z,27.72
2016-10-31T10:00:46.296Z,27.66
2016-10-31T10:01:26.985Z,27.78
2016-10-31T10:02:07.735Z,27.93
2016-10-31T10:02:48.437Z,27.94
2016-10-31T10:03:29.120Z,27.94
2016-10-31T10:04:09.770Z,27.9
2016-10-31T10:04:50.469Z,27.96
2016-10-31T10:05:31.131Z,27.94
2016-10-31T10:06:11.843Z,27.99
2016-10-31T10:06:52.477Z,28
2016-10-31T10:07:33.214Z,27.93
2016-10-31T10:08:13.889Z,28.03
2016-10-31T10:08:54.567Z,27.97
2016-10-31T10:09:35.269Z,28.02
2016-10-31T10:10:15.982Z,28.09
2016-10-31T10:10:56.662Z,27.96
2016-10-31T10:11:37.363Z,27.96
2016-10-31T10:12:18.069Z,27.94
2016-10-31T10:12:58.763Z,27.97
2016-10-31T10:13:39.455Z,28
2016-10-31T10:14:20.219Z,27.99
2016-10-31T10:15:00.881Z,27.87
2016-10-31T10:15:41.617Z,28.02
2016-10-31T10:16:22.317Z,27.96
2016-10-31T10:17:02.990Z,27.93
2016-10-31T10:17:43.698Z,27.97
2016-10-31T10:18:24.405Z,27.93
2016-10-31T10:19:05.068Z,27.9
2016-10-31T10:19:45.750Z,27.81
2016-10-31T10:20:26.478Z,27.57
2016-10-31T10:21:07.177Z,27.55
2016-10-31T10:21:47.919Z,27.66
2016-10-31T10:22:28.613Z,27.63
2016-10-31T10:23:09.369Z,27.81
2016-10-31T10:23:50.062Z,27.84
2016-10-31T10:24:30.764Z,27.84
2016-10-31T10:25:11.472Z,27.85
2016-10-31T10:25:52.163Z,27.81
2016-10-31T10:26:32.877Z,27.88
2016-10-31T10:27:13.620Z,27.82
2016-10-31T10:27:54.278Z,27.78
2016-10-31T10:28:34.961Z,27.75
2016-10-31T10:29:15.685Z,27.78
2016-10-31T10:29:56.353Z,27.69
2016-10-31T10:30:37.078Z,27.75
2016-10-31T10:31:17.764Z,27.66
2016-10-31T10:31:58.475Z,27.66
2016-10-31T10:32:39.245Z,27.7
2016-10-31T10:33:19.941Z,27.79
2016-10-31T10:34:00.629Z,27.46
2016-10-31T10:34:41.344Z,27.51
2016-10-31T10:35:22.080Z,27.54
2016-10-31T10:36:02.824Z,27.65
2016-10-31T10:36:43.484Z,27.57
2016-10-31T10:37:24.209Z,27.6
2016-10-31T10:38:04.943Z,27.51
2016-10-31T10:38:45.593Z,27.59
2016-10-31T10:39:26.319Z,27.54
2016-10-31T10:40:07.052Z,27.6
2016-10-31T10:40:47.740Z,27.5
2016-10-31T10:41:28.407Z,27.63
2016-10-31T10:42:09.110Z,27.6
2016-10-31T10:42:49.822Z,27.59
2016-10-31T10:43:30.499Z,27.57
2016-10-31T10:44:11.191Z,27.5
2016-10-31T10:44:51.848Z,27.55
2016-10-31T10:45:32.515Z,27.46
2016-10-31T10:46:13.206Z,27.57
2016-10-31T10:46:53.910Z,27.51
2016-10-31T10:47:34.621Z,27.57
2016-10-31T10:48:15.306Z,27.59
2016-10-31T10:48:55.998Z,27.54
2016-10-31T10:49:36.689Z,27.41
2016-10-31T10:50:17.356Z,27.39
2016-10-31T10:50:58.048Z,27.39
2016-10-31T10:51:38.745Z,27.43
2016-10-31T10:52:19.496Z,27.57
2016-10-31T10:53:00.179Z,27.55
2016-10-31T10:53:40.851Z,27.6
2016-10-31T10:54:21.496Z,27.55
2016-10-31T10:55:02.186Z,27.57
2016-10-31T10:55:42.871Z,27.55
2016-10-31T10:56:23.573Z,27.55
2016-10-31T10:57:04.250Z,27.51
2016-10-31T10:57:44.915Z,27.55
2016-10-31T10:58:25.663Z,27.55
2016-10-31T10:59:06.411Z,27.54
2016-10-31T10:59:47.183Z,27.55
2016-10-31T11:00:27.899Z,27.69
2016-10-31T11:01:08.618Z,27.63
2016-10-31T11:01:49.305Z,27.66
2016-10-31T11:02:30.017Z,27.62
2016-10-31T11:03:10.672Z,27.55
2016-10-31T11:03:51.365Z,27.67
2016-10-31T11:04:32.075Z,27.65
2016-10-31T11:05:12.769Z,27.57
2016-10-31T11:05:53.497Z,27.55
2016-10-31T11:06:34.226Z,27.55
2016-10-31T11:07:14.968Z,27.59
2016-10-31T11:07:56.522Z,27.55
2016-10-31T11:08:37.192Z,27.51
2016-10-31T11:09:18.015Z,27.55
2016-10-31T11:09:58.768Z,27.47
2016-10-31T11:10:39.480Z,27.46
2016-10-31T11:11:20.235Z,27.46
2016-10-31T11:12:00.869Z,27.54
2016-10-31T11:12:41.543Z,27.5
2016-10-31T11:13:22.217Z,27.46
2016-10-31T11:14:02.944Z,27.41
2016-10-31T11:14:43.628Z,27.43
2016-10-31T11:15:24.320Z,27.46
2016-10-31T11:16:04.999Z,27.55
2016-10-31T11:16:45.710Z,27.5
2016-10-31T11:17:26.374Z,27.55
2016-10-31T11:18:07.132Z,27.54
2016-10-31T11:18:47.814Z,27.5
2016-10-31T11:19:29.306Z,27.51
2016-10-31T11:20:10.864Z,27.5
2016-10-31T11:20:50.668Z,27.55
2016-10-31T11:21:31.372Z,27.4
2016-10-31T11:22:12.051Z,27.34
2016-10-31T11:22:52.765Z,27.32
2016-10-31T11:23:33.495Z,27.36
2016-10-31T11:24:14.210Z,27.34
2016-10-31T11:24:54.916Z,27.47
2016-10-31T11:25:35.595Z,27.4
2016-10-31T11:26:16.328Z,27.4
2016-10-31T11:26:57.051Z,27.44
2016-10-31T11:27:37.707Z,27.55
2016-10-31T11:28:18.423Z,27.44
2016-10-31T11:28:59.080Z,27.41
2016-10-31T11:29:39.821Z,27.39
2016-10-31T11:30:20.554Z,27.43
2016-10-31T11:31:01.243Z,27.55
2016-10-31T11:57:14.012Z,27.1
2016-10-31T11:57:54.686Z,27.07
2016-10-31T11:58:35.341Z,27.14
2016-10-31T11:59:15.988Z,27.14
2016-10-31T11:59:56.714Z,27.03
2016-10-31T12:00:37.434Z,27.13
2016-10-31T12:01:18.101Z,27.17
2016-10-31T12:01:58.783Z,27.29
2016-10-31T12:02:39.543Z,27.29
2016-10-31T12:03:20.252Z,27.32
2016-10-31T12:04:00.905Z,27.24
2016-10-31T12:04:41.598Z,27.32
2016-10-31T12:05:22.315Z,27.19
2016-10-31T12:06:03.006Z,27.25
2016-10-31T12:06:43.745Z,27.19
2016-10-31T12:07:24.469Z,27.14
2016-10-31T12:08:05.859Z,27.28
2016-10-31T12:08:46.493Z,27.43
2016-10-31T12:09:27.173Z,27.43
2016-10-31T12:10:07.900Z,27.34
2016-10-31T12:10:48.690Z,27.37
2016-10-31T12:11:29.377Z,27.18
2016-10-31T12:12:10.039Z,27.21
2016-10-31T12:12:50.769Z,27.22
2016-10-31T12:13:31.499Z,27.17
2016-10-31T12:14:12.204Z,27.14
2016-10-31T12:14:52.908Z,27.27
2016-10-31T12:15:33.559Z,27.19
2016-10-31T12:16:14.268Z,27.27
2016-10-31T12:16:54.998Z,27.31
2016-10-31T12:17:35.649Z,27.27
2016-10-31T12:18:16.341Z,27.29
2016-10-31T12:18:57.066Z,27.36
2016-10-31T12:19:37.739Z,27.39
2016-10-31T12:20:18.475Z,27.4
2016-10-31T12:20:59.111Z,27.4
2016-10-31T12:21:39.769Z,27.39
2016-10-31T12:22:20.437Z,27.36
2016-10-31T12:23:01.153Z,27.39
2016-10-31T12:23:41.868Z,27.34
2016-10-31T12:24:22.652Z,27.36
2016-10-31T12:25:03.751Z,27.24
2016-10-31T12:25:44.818Z,27.22
2016-10-31T12:26:25.510Z,27.22
2016-10-31T12:27:06.198Z,27.34
2016-10-31T12:27:46.959Z,27.39
2016-10-31T12:28:27.629Z,27.36
2016-10-31T12:29:08.388Z,27.37
2016-10-31T12:29:49.077Z,27.44
2016-10-31T12:30:29.756Z,27.51
2016-10-31T12:31:10.437Z,27.55
2016-10-31T12:31:51.093Z,27.41
2016-10-31T12:32:31.794Z,27.41
2016-10-31T12:33:12.531Z,27.49
2016-10-31T12:33:53.264Z,27.39
2016-10-31T12:34:33.961Z,27.36
2016-10-31T12:35:14.633Z,27.39
2016-10-31T12:35:55.331Z,27.39
2016-10-31T12:36:36.029Z,27.39
2016-10-31T12:37:16.739Z,27.37
2016-10-31T12:37:57.454Z,27.41
2016-10-31T12:38:38.181Z,27.44
2016-10-31T12:39:18.859Z,27.39
2016-10-31T12:39:59.547Z,27.41
2016-10-31T12:40:40.265Z,27.41
2016-10-31T12:41:20.945Z,27.39
2016-10-31T12:42:01.655Z,27.39
2016-10-31T12:42:42.368Z,27.29
2016-10-31T12:43:23.033Z,27.32
2016-10-31T12:44:03.707Z,27.31
2016-10-31T12:44:44.408Z,27.27
2016-10-31T12:45:25.071Z,27.41
2016-10-31T12:46:05.819Z,27.34
2016-10-31T12:46:46.527Z,27.4
2016-10-31T12:47:27.201Z,27.36
2016-10-31T12:48:07.917Z,27.34
2016-10-31T12:48:48.660Z,27.36
2016-10-31T12:49:29.339Z,27.36
2016-10-31T12:50:10.212Z,27.31
2016-10-31T12:50:50.878Z,27.4
2016-10-31T12:51:31.562Z,27.39
2016-10-31T12:52:12.267Z,27.39
2016-10-31T12:52:52.915Z,27.34
2016-10-31T12:53:33.571Z,27.37
2016-10-31T12:54:14.291Z,27.31
2016-10-31T12:54:54.929Z,27.27
2016-10-31T12:55:35.646Z,27.32
2016-10-31T12:56:16.350Z,27.36
2016-10-31T12:56:57.036Z,27.43
2016-10-31T12:57:37.712Z,27.36
2016-10-31T12:58:18.373Z,27.37
2016-10-31T12:58:59.055Z,27.41
2016-10-31T12:59:39.819Z,27.41
2016-10-31T13:00:20.545Z,27.4
2016-10-31T13:01:01.282Z,27.31
2016-10-31T13:01:41.920Z,27.36
2016-10-31T13:02:22.578Z,27.55
2016-10-31T13:03:03.289Z,27.31
2016-10-31T13:03:44.029Z,27.36
2016-10-31T13:04:24.725Z,27.34
2016-10-31T13:05:05.434Z,27.4
2016-10-31T13:05:46.137Z,27.5
2016-10-31T13:06:26.835Z,27.55
2016-10-31T13:07:07.807Z,27.54
2016-10-31T13:07:48.489Z,27.41
2016-10-31T13:08:29.210Z,27.49
2016-10-31T13:09:09.906Z,27.41
2016-10-31T13:09:50.607Z,27.57
2016-10-31T13:10:31.292Z,27.59
2016-10-31T13:11:11.977Z,27.5
2016-10-31T13:11:52.747Z,27.5
2016-10-31T13:12:33.473Z,27.4
2016-10-31T13:13:14.224Z,27.44
2016-10-31T13:13:54.976Z,27.49
2016-10-31T13:14:35.667Z,27.43
2016-10-31T13:15:16.351Z,27.36
2016-10-31T13:15:57.001Z,27.37
2016-10-31T13:16:37.655Z,27.43
2016-10-31T13:17:18.308Z,27.39
2016-10-31T13:17:59.945Z,27.34
2016-10-31T13:18:40.643Z,27.41
2016-10-31T13:19:21.338Z,27.43
2016-10-31T13:20:01.985Z,27.5
2016-10-31T13:20:42.677Z,27.55
2016-10-31T13:21:23.396Z,27.55
2016-10-31T13:22:04.084Z,27.59
2016-10-31T13:22:44.775Z,27.51
2016-10-31T13:23:25.472Z,27.55
2016-10-31T13:24:06.163Z,27.47
2016-10-31T13:24:46.839Z,27.46
2016-10-31T13:25:27.506Z,27.51
2016-10-31T13:26:08.309Z,27.62
2016-10-31T13:26:48.979Z,27.55
2016-10-31T13:27:29.737Z,27.44
2016-10-31T13:28:10.427Z,27.5
2016-10-31T13:28:51.107Z,27.59
2016-10-31T13:29:31.790Z,27.49
2016-10-31T13:30:12.492Z,27.44
2016-10-31T13:30:53.223Z,27.43
2016-10-31T13:31:33.926Z,27.43
2016-10-31T13:32:14.675Z,27.37
2016-10-31T13:32:55.364Z,27.39
2016-10-31T13:33:36.095Z,27.41
2016-10-31T13:34:16.788Z,27.39
2016-10-31T13:34:57.466Z,27.36
2016-10-31T13:35:38.213Z,27.37
2016-10-31T13:36:18.895Z,27.32
2016-10-31T13:36:59.599Z,27.36
2016-10-31T13:37:40.234Z,27.39
2016-10-31T13:38:20.912Z,27.31
2016-10-31T13:39:01.633Z,27.34
2016-10-31T13:39:42.288Z,27.27
2016-10-31T13:40:22.968Z,27.25
2016-10-31T13:41:03.642Z,27.29
2016-10-31T13:41:44.324Z,27.4
2016-10-31T13:42:25.028Z,27.31
2016-10-31T13:43:05.744Z,27.27
2016-10-31T13:43:46.465Z,27.25
2016-10-31T13:44:27.231Z,27.31
2016-10-31T13:45:07.905Z,27.32
2016-10-31T13:45:48.606Z,27.21
2016-10-31T13:46:29.287Z,27.31
2016-10-31T13:47:09.988Z,27.29
2016-10-31T13:47:50.659Z,27.19
2016-10-31T13:48:31.366Z,27.21
2016-10-31T13:49:12.123Z,27.22
2016-10-31T13:49:52.838Z,27.28
2016-10-31T13:50:33.516Z,27.25
2016-10-31T13:51:14.256Z,27.25
2016-10-31T13:51:54.918Z,27.28
2016-10-31T13:52:35.628Z,27.31
2016-10-31T13:53:16.302Z,27.22
2016-10-31T13:53:57.063Z,27.17
2016-10-31T13:54:37.820Z,27.14
2016-10-31T13:55:18.505Z,27.27
2016-10-31T13:55:59.251Z,27.22
2016-10-31T13:56:40.024Z,27.21
2016-10-31T13:57:20.735Z,27.28
2016-10-31T13:58:01.406Z,27.27
2016-10-31T13:58:42.151Z,27.27
2016-10-31T13:59:22.800Z,27.37
2016-10-31T14:00:03.510Z,27.36
2016-10-31T14:00:44.196Z,27.4
2016-10-31T14:01:24.895Z,27.41
2016-10-31T14:02:05.642Z,27.4
2016-10-31T14:02:46.303Z,27.4
2016-10-31T14:03:27.061Z,27.39
2016-10-31T14:04:07.771Z,27.32
2016-10-31T14:04:48.485Z,27.25
2016-10-31T14:05:29.219Z,27.27
2016-10-31T14:06:09.917Z,27.43
2016-10-31T14:06:50.599Z,27.39
2016-10-31T14:07:31.279Z,27.29
2016-10-31T14:08:11.957Z,27.4
2016-10-31T14:08:52.660Z,27.36
2016-10-31T14:09:33.312Z,27.39
2016-10-31T14:10:14.022Z,27.32
2016-10-31T14:10:54.792Z,27.25
2016-10-31T14:11:35.510Z,27.37
2016-10-31T14:12:16.203Z,27.31
2016-10-31T14:12:56.898Z,27.34
2016-10-31T14:13:37.557Z,27.37
2016-10-31T14:14:18.262Z,27.34
2016-10-31T14:14:58.962Z,27.4
2016-10-31T14:15:39.653Z,27.32
2016-10-31T14:16:20.374Z,27.36
2016-10-31T14:17:01.057Z,27.36
2016-10-31T14:17:41.753Z,27.32
2016-10-31T14:18:22.426Z,27.37
2016-10-31T14:19:03.108Z,27.37
2016-10-31T14:19:43.881Z,27.32
2016-10-31T14:20:24.660Z,27.37
2016-10-31T14:21:05.291Z,27.37
2016-10-31T14:21:45.989Z,27.32
2016-10-31T14:22:26.668Z,27.41
2016-10-31T14:23:07.410Z,27.41
2016-10-31T14:23:48.065Z,27.36
2016-10-31T14:24:28.713Z,27.34
2016-10-31T14:25:09.372Z,27.44
2016-10-31T14:25:50.081Z,27.36
2016-10-31T14:26:30.741Z,27.31
2016-10-31T14:27:11.429Z,27.34
2016-10-31T14:27:52.117Z,27.37
2016-10-31T14:28:32.825Z,27.32
2016-10-31T14:29:13.536Z,27.36
2016-10-31T14:29:54.197Z,27.34
2016-10-31T14:30:34.925Z,27.34
2016-10-31T14:31:15.667Z,27.43
2016-10-31T14:31:56.324Z,27.39
2016-10-31T14:32:37.045Z,27.43
2016-10-31T14:33:17.735Z,27.44
2016-10-31T14:33:58.437Z,27.32
2016-10-31T14:34:39.172Z,27.36
2016-10-31T14:35:19.878Z,27.27
2016-10-31T14:36:00.588Z,27.27
2016-10-31T14:36:41.240Z,27.34
2016-10-31T14:37:21.954Z,27.25
2016-10-31T14:38:02.665Z,27.32
2016-10-31T14:38:43.335Z,27.32
2016-10-31T14:39:24.025Z,27.31
2016-10-31T14:40:04.726Z,27.28
2016-10-31T14:40:45.433Z,27.24
2016-10-31T14:41:26.080Z,27.24
2016-10-31T14:42:06.769Z,27.31
2016-10-31T14:42:47.435Z,27.31
2016-10-31T14:43:28.138Z,27.22
2016-10-31T14:44:08.879Z,27.24
2016-10-31T14:44:49.567Z,27.29
2016-10-31T14:45:30.237Z,27.29
2016-10-31T14:46:10.964Z,27.21
2016-10-31T14:46:51.626Z,27.19
2016-10-31T14:47:32.368Z,27.24
2016-10-31T14:48:12.992Z,27.29
2016-10-31T14:48:53.715Z,27.32
2016-10-31T14:49:34.400Z,27.28
2016-10-31T14:50:15.079Z,27.25
2016-10-31T14:50:55.787Z,27.31
2016-10-31T14:51:36.511Z,27.31
2016-10-31T14:52:17.235Z,27.18
2016-10-31T14:52:57.983Z,27.37
2016-10-31T14:53:38.677Z,27.34
2016-10-31T14:54:19.433Z,27.43
2016-10-31T14:55:00.150Z,27.46
2016-10-31T14:55:40.853Z,27.46
2016-10-31T14:56:21.617Z,27.46
2016-10-31T14:57:02.335Z,27.46
2016-10-31T14:57:43.063Z,27.46
2016-10-31T14:58:23.779Z,27.49
2016-10-31T14:59:04.511Z,27.65
2016-10-31T14:59:45.194Z,27.57
2016-10-31T15:00:25.885Z,27.55
2016-10-31T15:01:06.533Z,27.63
2016-10-31T15:01:47.222Z,27.67
2016-10-31T15:02:27.950Z,27.6
2016-10-31T15:03:08.669Z,27.66
2016-10-31T15:03:49.417Z,27.74
2016-10-31T15:04:30.067Z,27.72
2016-10-31T15:05:10.763Z,27.77
2016-10-31T15:05:51.490Z,27.74
2016-10-31T15:06:32.956Z,27.7
2016-10-31T15:07:12.876Z,27.77
2016-10-31T15:07:53.524Z,27.77
2016-10-31T15:08:34.207Z,27.72
2016-10-31T15:09:14.896Z,27.79
2016-10-31T15:09:55.567Z,27.79
2016-10-31T15:10:36.276Z,27.72
2016-10-31T15:11:16.948Z,27.79
2016-10-31T15:11:57.668Z,27.82
2016-10-31T15:12:38.365Z,27.85
2016-10-31T15:13:19.055Z,27.82
2016-10-31T15:13:59.766Z,27.92
2016-10-31T15:14:40.448Z,27.87
2016-10-31T15:15:21.155Z,27.93
2016-10-31T15:16:01.852Z,27.9
2016-10-31T15:16:43.511Z,27.92
2016-10-31T15:17:25.140Z,27.87
2016-10-31T15:18:05.870Z,27.79
2016-10-31T15:18:46.556Z,27.9
2016-10-31T15:19:27.256Z,27.93
2016-10-31T15:20:07.923Z,27.87
2016-10-31T15:20:48.661Z,27.93
2016-10-31T15:21:29.365Z,28
2016-10-31T15:22:10.061Z,27.99
2016-10-31T15:22:50.776Z,27.96
2016-10-31T15:23:31.490Z,27.96
2016-10-31T15:24:12.167Z,27.99
2016-10-31T15:24:52.861Z,27.93
2016-10-31T15:25:33.595Z,27.97
2016-10-31T15:26:14.446Z,27.94
2016-10-31T15:26:55.232Z,28
2016-10-31T15:27:37.082Z,27.92
2016-10-31T15:28:17.828Z,27.93
2016-10-31T15:28:58.672Z,27.99
2016-10-31T15:29:39.471Z,27.96
2016-10-31T15:30:20.199Z,28
2016-10-31T15:31:00.924Z,28
2016-10-31T15:31:41.655Z,28.04
2016-10-31T15:32:22.336Z,28.03
2016-10-31T15:33:03.065Z,28.02
2016-10-31T15:33:43.836Z,28.02
2016-10-31T15:34:24.563Z,27.88
2016-10-31T15:35:05.275Z,27.93
2016-10-31T15:35:46.064Z,28.04
2016-10-31T15:36:26.779Z,27.94
2016-10-31T15:37:07.535Z,27.97
2016-10-31T15:37:49.641Z,28.02
2016-10-31T15:38:30.180Z,28.02
2016-10-31T15:39:11.011Z,28.06
2016-10-31T15:39:51.904Z,27.94
2016-10-31T15:40:32.873Z,27.94
2016-10-31T15:41:13.662Z,28.03
2016-10-31T15:41:54.377Z,28.04
2016-10-31T15:42:35.083Z,28.11
2016-10-31T15:43:15.751Z,28
2016-10-31T15:43:56.460Z,27.93
2016-10-31T15:44:37.158Z,27.94
2016-10-31T15:45:17.918Z,27.96
2016-10-31T15:45:58.586Z,28.03
2016-10-31T15:46:39.275Z,27.96
2016-10-31T15:47:19.937Z,27.9
2016-10-31T15:48:00.560Z,28.02
2016-10-31T15:48:41.255Z,27.93
2016-10-31T15:49:21.924Z,27.99
2016-10-31T15:50:02.608Z,27.94
2016-10-31T15:50:43.292Z,28.06
2016-10-31T15:51:24.114Z,28.06
2016-10-31T15:52:04.754Z,28.06
2016-10-31T15:52:45.493Z,27.96
2016-10-31T15:53:26.181Z,28.04
2016-10-31T15:54:06.895Z,27.93
2016-10-31T15:54:47.639Z,27.99
2016-10-31T15:55:28.365Z,27.97
2016-10-31T15:56:09.109Z,27.94
2016-10-31T15:56:50.916Z,27.99
2016-10-31T15:57:31.773Z,27.93
2016-10-31T15:58:12.493Z,27.96
2016-10-31T15:58:53.179Z,27.99
2016-10-31T15:59:33.944Z,28
2016-10-31T16:00:14.650Z,28.03
2016-10-31T16:00:55.338Z,27.97
2016-10-31T16:01:36.063Z,28.03
2016-10-31T16:02:16.765Z,28
2016-10-31T16:02:57.468Z,28
2016-10-31T16:03:38.185Z,27.9
2016-10-31T16:04:18.886Z,27.87
2016-10-31T16:04:59.620Z,27.97
2016-10-31T16:05:40.274Z,27.93
2016-10-31T16:06:20.969Z,27.97
2016-10-31T16:07:01.671Z,27.93
2016-10-31T16:07:42.368Z,27.96
2016-10-31T16:08:23.042Z,27.97
2016-10-31T16:09:03.702Z,27.96
2016-10-31T16:09:44.391Z,27.94
2016-10-31T16:10:25.072Z,28.06
2016-10-31T16:11:05.766Z,28.03
2016-10-31T16:11:46.459Z,27.96
2016-10-31T16:12:27.150Z,27.94
2016-10-31T16:13:07.896Z,27.96
2016-10-31T16:13:48.605Z,27.96
2016-10-31T16:14:29.307Z,27.96
2016-10-31T16:15:10.005Z,28.03
2016-10-31T16:15:50.757Z,28.04
2016-10-31T16:16:31.427Z,28.07
2016-10-31T16:17:12.120Z,28.11
2016-10-31T16:17:52.838Z,28.12
2016-10-31T16:18:34.499Z,27.93
2016-10-31T16:19:14.240Z,28.02
2016-10-31T16:19:54.881Z,28
2016-10-31T16:20:35.571Z,27.93
2016-10-31T16:21:16.331Z,27.96
2016-10-31T16:21:57.031Z,27.97
2016-10-31T16:22:37.758Z,27.92
2016-10-31T16:23:18.449Z,27.99
2016-10-31T16:23:59.159Z,27.94
2016-10-31T16:24:39.807Z,28.02
2016-10-31T16:25:20.532Z,28.04
2016-10-31T16:26:01.203Z,28.07
2016-10-31T16:26:41.930Z,27.96
2016-10-31T16:27:22.673Z,27.99
2016-10-31T16:28:03.421Z,27.96
2016-10-31T16:28:44.108Z,27.93
2016-10-31T16:29:24.827Z,27.93
2016-10-31T16:30:05.510Z,27.96
2016-10-31T16:30:46.487Z,27.94
2016-10-31T16:31:27.051Z,27.96
2016-10-31T16:32:07.748Z,27.88
2016-10-31T16:32:48.495Z,27.97
2016-10-31T16:33:29.188Z,28
2016-10-31T16:34:09.887Z,27.97
2016-10-31T16:34:50.544Z,27.92
2016-10-31T16:35:31.385Z,27.97
2016-10-31T16:36:12.003Z,28.02
2016-10-31T16:36:52.739Z,27.96
2016-10-31T16:37:33.511Z,27.97
2016-10-31T16:38:14.200Z,27.93
2016-10-31T16:38:54.899Z,27.96
2016-10-31T16:39:35.636Z,28.02
2016-10-31T16:40:16.486Z,28.03
2016-10-31T16:40:57.145Z,27.96
2016-10-31T16:41:37.844Z,27.97
2016-10-31T16:42:18.499Z,28.06
2016-10-31T16:42:59.216Z,28.03
2016-10-31T16:43:39.900Z,27.93
2016-10-31T16:44:20.573Z,28.04
2016-10-31T16:45:01.244Z,28
2016-10-31T16:45:41.936Z,28.03
2016-10-31T16:46:22.637Z,28.07
2016-10-31T16:47:03.415Z,28.03
2016-10-31T16:47:44.177Z,28.02
2016-10-31T16:48:26.066Z,28.03
2016-10-31T16:49:06.870Z,28.02
2016-10-31T16:49:47.554Z,27.96
2016-10-31T16:50:28.242Z,27.97
2016-10-31T16:51:09.161Z,28.03
2016-10-31T16:51:49.839Z,28.04
2016-10-31T16:52:30.606Z,28.02
2016-10-31T16:53:11.273Z,28.03
2016-10-31T16:53:52.074Z,28.06
2016-10-31T16:54:32.762Z,28.02
2016-10-31T16:55:13.428Z,27.93
2016-10-31T16:55:54.169Z,27.94
2016-10-31T16:56:34.965Z,28.04
2016-10-31T16:57:15.771Z,28.07
2016-10-31T16:57:56.578Z,28.07
2016-10-31T16:58:37.239Z,28.02
2016-10-31T16:59:17.963Z,28.06
2016-10-31T16:59:58.676Z,28.06
2016-10-31T17:00:39.435Z,28.04
2016-10-31T17:01:20.131Z,27.94
2016-10-31T17:02:00.870Z,28.02
2016-10-31T17:02:41.564Z,28.11
2016-10-31T17:03:23.207Z,28.04
2016-10-31T17:04:03.865Z,28.02
2016-10-31T17:04:44.689Z,27.97
2016-10-31T17:05:25.376Z,28.04
2016-10-31T17:06:06.085Z,28.04
2016-10-31T17:06:46.789Z,28.03
2016-10-31T17:07:27.519Z,28.02
2016-10-31T17:08:08.231Z,28.04
2016-10-31T17:08:48.941Z,28.02
2016-10-31T17:09:29.699Z,28
2016-10-31T17:10:10.333Z,28.04
2016-10-31T17:10:51.362Z,28.02
2016-10-31T17:11:32.097Z,28
2016-10-31T17:12:12.763Z,27.97
2016-10-31T17:12:53.449Z,27.96
2016-10-31T17:13:34.300Z,28.04
2016-10-31T17:14:15.471Z,28.03
2016-10-31T17:14:56.069Z,28
2016-10-31T17:15:36.929Z,28.03
2016-10-31T17:16:17.684Z,27.99
2016-10-31T17:16:58.337Z,28.07
2016-10-31T17:17:39.051Z,28.02
2016-10-31T17:18:19.747Z,27.99
2016-10-31T17:19:00.410Z,28.06
2016-10-31T17:19:41.152Z,28.02
2016-10-31T17:20:22.546Z,27.99
2016-10-31T17:21:02.507Z,28
2016-10-31T17:21:43.153Z,28.03
2016-10-31T17:22:23.876Z,28.04
2016-10-31T17:23:04.602Z,28.15
2016-10-31T17:23:45.330Z,28.11
2016-10-31T17:24:25.996Z,28.11
2016-10-31T17:25:06.663Z,28.17
2016-10-31T17:25:47.351Z,28.15
2016-10-31T17:26:28.012Z,28.06
2016-10-31T17:27:08.680Z,28.11
2016-10-31T17:27:49.373Z,28.02
2016-10-31T17:28:30.062Z,28.04
2016-10-31T17:29:10.754Z,28.06
2016-10-31T17:29:51.468Z,28.07
2016-10-31T17:30:32.144Z,28.14
2016-10-31T17:31:12.861Z,28.02
2016-10-31T17:31:53.489Z,28.07
2016-10-31T17:32:34.173Z,28.11
2016-10-31T17:33:14.849Z,28.12
2016-10-31T17:33:55.515Z,28.12
2016-10-31T17:34:36.249Z,28.18
2016-10-31T17:35:16.993Z,28.15
2016-10-31T17:35:57.706Z,28.15
2016-10-31T17:36:38.449Z,28.15
2016-10-31T17:37:19.112Z,28.14
2016-10-31T17:37:59.770Z,28.14
2016-10-31T17:38:40.508Z,28.17
2016-10-31T17:39:21.091Z,28.17
2016-10-31T17:40:01.823Z,28.14